sensor_id;sensor_type;location;lat;lon;timestamp;temperature;humidity
40249;DHT22;25969;49.970;11.062;2024-02-26T05:09:46;4.80;96.40
40249;DHT22;25969;49.970;11.062;2024-02-26T05:19:46;5.00;96.30
40249;DHT22;25969;49.970;11.062;2024-02-26T05:29:47;4.90;96.20
40249;DHT22;25969;49.970;11.062;2024-02-26T05:39:48;5.00;96.70
40249;DHT22;25969;49.970;11.062;2024-02-26T05:49:48;4.90;97.00
40249;DHT22;25969;49.970;11.062;2024-02-26T05:59:49;4.90;97.10
40249;DHT22;25969;49.970;11.062;2024-02-26T06:09:50;4.80;97.60
40249;DHT22;25969;49.970;11.062;2024-02-26T06:19:50;4.90;97.50
40249;DHT22;25969;49.970;11.062;2024-02-26T06:29:51;5.00;97.30
40249;DHT22;25969;49.970;11.062;2024-02-26T06:39:52;4.90;97.70
40249;DHT22;25969;49.970;11.062;2024-02-26T06:49:52;4.70;98.30
40249;DHT22;25969;49.970;11.062;2024-02-26T06:59:53;4.90;98.30
40249;DHT22;25969;49.970;11.062;2024-02-26T07:09:54;4.80;98.60
40249;DHT22;25969;49.970;11.062;2024-02-26T07:19:55;5.10;98.70
40249;DHT22;25969;49.970;11.062;2024-02-26T07:29:56;4.90;99.10
40249;DHT22;25969;49.970;11.062;2024-02-26T07:39:56;4.80;99.00
40249;DHT22;25969;49.970;11.062;2024-02-26T07:49:57;4.90;99.10
40249;DHT22;25969;49.970;11.062;2024-02-26T07:59:58;4.90;99.60
40249;DHT22;25969;49.970;11.062;2024-02-26T08:09:58;5.00;99.00
40249;DHT22;25969;49.970;11.062;2024-02-26T08:19:59;5.30;98.40
40249;DHT22;25969;49.970;11.062;2024-02-26T08:30:00;5.40;98.60
40249;DHT22;25969;49.970;11.062;2024-02-26T08:40:00;5.50;98.60
40249;DHT22;25969;49.970;11.062;2024-02-26T08:50:01;6.00;97.60
40249;DHT22;25969;49.970;11.062;2024-02-26T09:00:02;6.40;97.10
40249;DHT22;25969;49.970;11.062;2024-02-26T09:10:03;6.50;97.00
40249;DHT22;25969;49.970;11.062;2024-02-26T09:20:05;7.50;95.30
40249;DHT22;25969;49.970;11.062;2024-02-26T09:30:06;8.00;93.30
40249;DHT22;25969;49.970;11.062;2024-02-26T09:40:08;10.10;89.90
40249;DHT22;25969;49.970;11.062;2024-02-26T09:50:10;8.10;91.50
40249;DHT22;25969;49.970;11.062;2024-02-26T10:00:14;9.10;90.10
40249;DHT22;25969;49.970;11.062;2024-02-26T10:10:17;8.50;91.10
40249;DHT22;25969;49.970;11.062;2024-02-26T10:20:18;8.40;91.50
40249;DHT22;25969;49.970;11.062;2024-02-26T10:30:22;8.80;90.60
40249;DHT22;25969;49.970;11.062;2024-02-26T10:40:23;12.10;81.60
40249;DHT22;25969;49.970;11.062;2024-02-26T10:50:23;13.20;72.00
40249;DHT22;25969;49.970;11.062;2024-02-26T11:00:24;14.80;68.20
40249;DHT22;25969;49.970;11.062;2024-02-26T11:10:25;12.60;70.10
40249;DHT22;25969;49.970;11.062;2024-02-26T11:20:29;14.30;68.60
40249;DHT22;25969;49.970;11.062;2024-02-26T11:30:31;13.70;70.00
40249;DHT22;25969;49.970;11.062;2024-02-26T11:40:33;12.50;72.40
40249;DHT22;25969;49.970;11.062;2024-02-26T11:50:39;13.40;70.50
40249;DHT22;25969;49.970;11.062;2024-02-26T12:00:40;14.10;63.20
40249;DHT22;25969;49.970;11.062;2024-02-26T12:10:41;13.30;67.90
40249;DHT22;25969;49.970;11.062;2024-02-26T12:20:43;13.90;66.70
40249;DHT22;25969;49.970;11.062;2024-02-26T12:30:47;13.80;66.50
40249;DHT22;25969;49.970;11.062;2024-02-26T12:40:48;13.60;69.40
40249;DHT22;25969;49.970;11.062;2024-02-26T12:50:49;16.70;57.90
40249;DHT22;25969;49.970;11.062;2024-02-26T13:00:51;17.30;54.50
40249;DHT22;25969;49.970;11.062;2024-02-26T13:10:51;14.50;58.20
40249;DHT22;25969;49.970;11.062;2024-02-26T13:20:53;15.10;61.10
40249;DHT22;25969;49.970;11.062;2024-02-26T13:30:57;14.50;59.90
40249;DHT22;25969;49.970;11.062;2024-02-26T13:40:57;14.60;61.40
40249;DHT22;25969;49.970;11.062;2024-02-26T13:50:58;13.60;62.00
40249;DHT22;25969;49.970;11.062;2024-02-26T14:00:59;16.50;58.30
40249;DHT22;25969;49.970;11.062;2024-02-26T14:11:00;13.90;63.20
40249;DHT22;25969;49.970;11.062;2024-02-26T14:21:00;11.90;71.10
40249;DHT22;25969;49.970;11.062;2024-02-26T14:31:01;12.40;68.60
40249;DHT22;25969;49.970;11.062;2024-02-26T14:41:02;12.40;69.00
40249;DHT22;25969;49.970;11.062;2024-02-26T14:51:03;11.80;71.10
40249;DHT22;25969;49.970;11.062;2024-02-26T15:01:05;11.70;72.50
40249;DHT22;25969;49.970;11.062;2024-02-26T15:11:06;11.50;71.60
40249;DHT22;25969;49.970;11.062;2024-02-26T15:21:07;11.10;72.70
40249;DHT22;25969;49.970;11.062;2024-02-26T15:31:08;11.00;75.00
40249;DHT22;25969;49.970;11.062;2024-02-26T15:41:11;10.60;77.00
40249;DHT22;25969;49.970;11.062;2024-02-26T15:51:22;10.20;79.00
40249;DHT22;25969;49.970;11.062;2024-02-26T16:01:24;10.10;79.50
40249;DHT22;25969;49.970;11.062;2024-02-26T16:11:25;10.00;80.50
40249;DHT22;25969;49.970;11.062;2024-02-26T16:21:26;9.90;79.50
40249;DHT22;25969;49.970;11.062;2024-02-26T16:31:26;9.80;79.60
40249;DHT22;25969;49.970;11.062;2024-02-26T16:41:29;9.70;79.50
40249;DHT22;25969;49.970;11.062;2024-02-26T16:51:29;9.60;80.40
40249;DHT22;25969;49.970;11.062;2024-02-26T17:01:30;9.40;81.40
40249;DHT22;25969;49.970;11.062;2024-02-26T17:11:31;9.40;81.50
40249;DHT22;25969;49.970;11.062;2024-02-26T17:21:33;9.30;81.90
40249;DHT22;25969;49.970;11.062;2024-02-26T17:31:34;9.20;82.60
40249;DHT22;25969;49.970;11.062;2024-02-26T17:41:37;9.00;83.90
40249;DHT22;25969;49.970;11.062;2024-02-26T17:51:38;8.90;85.00
40249;DHT22;25969;49.970;11.062;2024-02-26T18:01:39;8.80;86.30
40249;DHT22;25969;49.970;11.062;2024-02-26T18:11:43;8.80;86.60
40249;DHT22;25969;49.970;11.062;2024-02-26T18:21:44;8.60;87.70
40249;DHT22;25969;49.970;11.062;2024-02-26T18:31:45;8.60;88.30
40249;DHT22;25969;49.970;11.062;2024-02-26T18:41:46;8.50;90.40
40249;DHT22;25969;49.970;11.062;2024-02-26T18:51:46;8.40;92.00
40249;DHT22;25969;49.970;11.062;2024-02-26T19:01:47;8.30;92.70
40249;DHT22;25969;49.970;11.062;2024-02-26T19:11:48;8.20;93.40
40249;DHT22;25969;49.970;11.062;2024-02-26T19:21:51;8.10;93.70
40249;DHT22;25969;49.970;11.062;2024-02-26T19:31:53;8.00;94.80
40249;DHT22;25969;49.970;11.062;2024-02-26T19:41:54;7.70;95.50
40249;DHT22;25969;49.970;11.062;2024-02-26T19:51:54;7.70;96.00
40249;DHT22;25969;49.970;11.062;2024-02-26T20:01:55;7.50;95.90
40249;DHT22;25969;49.970;11.062;2024-02-26T20:11:55;7.50;95.80
40249;DHT22;25969;49.970;11.062;2024-02-26T20:21:58;7.50;95.00
40249;DHT22;25969;49.970;11.062;2024-02-26T20:32:00;7.50;94.50
40249;DHT22;25969;49.970;11.062;2024-02-26T20:42:00;7.50;94.40
40249;DHT22;25969;49.970;11.062;2024-02-26T20:52:01;7.50;94.60
40249;DHT22;25969;49.970;11.062;2024-02-26T21:02:02;7.40;95.00
40249;DHT22;25969;49.970;11.062;2024-02-26T21:12:02;7.40;95.60
40249;DHT22;25969;49.970;11.062;2024-02-26T21:22:03;7.30;95.30
40249;DHT22;25969;49.970;11.062;2024-02-26T21:32:04;7.30;95.70
40249;DHT22;25969;49.970;11.062;2024-02-26T21:42:05;7.30;96.20
40249;DHT22;25969;49.970;11.062;2024-02-26T21:52:06;7.20;96.00
40249;DHT22;25969;49.970;11.062;2024-02-26T22:02:06;7.20;95.40
40249;DHT22;25969;49.970;11.062;2024-02-26T22:12:07;7.20;96.00
40249;DHT22;25969;49.970;11.062;2024-02-26T22:22:07;7.30;95.00
40249;DHT22;25969;49.970;11.062;2024-02-26T22:32:08;7.30;94.70
40249;DHT22;25969;49.970;11.062;2024-02-26T22:42:08;7.20;94.60
40249;DHT22;25969;49.970;11.062;2024-02-26T22:52:09;7.30;94.20
